ECP weather

Northwest Florida Beaches International Airport
Panama City Beach, Florida, United States

Public forecast

Using degrees Fahrenheit for public forecast. Weather courtesy of forecast.io.

METAR (pilot weather report)

Retrieved 2017/10/21 12:53 UTC (11 minutes ago):

KECP 211253Z 06007KT 10SM CLR 21/18 A3015 RMK AO2 SLP221 T02060183

TAF (pilot weather forecast)

Retrieved 2017/10/21 12:22 UTC (42 minutes ago):

TAF KECP 211120Z 2112/2212 08008KT P6SM SCT040 BKN250